sensor_id;sensor_type;location;lat;lon;timestamp;P1;durP1;ratioP1;P2;durP2;ratioP2
32505;SDS011;18955;51.224;8.482;2023-09-19T14:12:32;10.48;;;2.30;;
32505;SDS011;18955;51.224;8.482;2023-09-19T14:14:59;11.32;;;2.95;;
32505;SDS011;18955;51.224;8.482;2023-09-19T14:17:25;9.93;;;2.30;;
32505;SDS011;18955;51.224;8.482;2023-09-19T14:22:18;9.98;;;2.35;;
32505;SDS011;18955;51.224;8.482;2023-09-19T14:27:11;11.20;;;2.25;;
32505;SDS011;18955;51.224;8.482;2023-09-19T14:29:37;10.30;;;2.25;;
32505;SDS011;18955;51.224;8.482;2023-09-19T14:32:03;11.27;;;1.95;;
32505;SDS011;18955;51.224;8.482;2023-09-19T14:34:30;15.68;;;2.45;;
32505;SDS011;18955;51.224;8.482;2023-09-19T14:36:57;21.35;;;2.90;;
32505;SDS011;18955;51.224;8.482;2023-09-19T14:39:23;17.40;;;2.70;;
32505;SDS011;18955;51.224;8.482;2023-09-19T14:41:49;18.45;;;3.38;;
32505;SDS011;18955;51.224;8.482;2023-09-19T14:44:16;10.50;;;2.22;;
32505;SDS011;18955;51.224;8.482;2023-09-19T14:46:42;10.32;;;2.67;;
32505;SDS011;18955;51.224;8.482;2023-09-19T14:49:11;9.60;;;2.53;;
32505;SDS011;18955;51.224;8.482;2023-09-19T14:51:38;15.63;;;3.35;;
32505;SDS011;18955;51.224;8.482;2023-09-19T14:54:09;9.82;;;2.25;;
32505;SDS011;18955;51.224;8.482;2023-09-19T14:56:36;6.50;;;2.10;;
32505;SDS011;18955;51.224;8.482;2023-09-19T14:59:02;14.65;;;2.20;;
32505;SDS011;18955;51.224;8.482;2023-09-19T15:01:28;8.90;;;1.77;;
32505;SDS011;18955;51.224;8.482;2023-09-19T15:03:55;10.48;;;2.42;;
32505;SDS011;18955;51.224;8.482;2023-09-19T15:06:21;12.10;;;2.35;;
32505;SDS011;18955;51.224;8.482;2023-09-19T15:08:48;9.98;;;2.45;;
32505;SDS011;18955;51.224;8.482;2023-09-19T15:11:19;11.88;;;2.30;;
32505;SDS011;18955;51.224;8.482;2023-09-19T15:13:46;7.57;;;2.05;;
32505;SDS011;18955;51.224;8.482;2023-09-19T15:16:13;9.82;;;2.22;;
32505;SDS011;18955;51.224;8.482;2023-09-19T15:18:41;7.82;;;2.30;;
32505;SDS011;18955;51.224;8.482;2023-09-19T15:21:09;9.25;;;2.20;;
32505;SDS011;18955;51.224;8.482;2023-09-19T15:23:37;11.07;;;2.58;;
32505;SDS011;18955;51.224;8.482;2023-09-19T15:26:04;15.68;;;2.65;;
32505;SDS011;18955;51.224;8.482;2023-09-19T15:28:32;16.27;;;1.98;;
32505;SDS011;18955;51.224;8.482;2023-09-19T15:31:02;7.82;;;2.40;;
32505;SDS011;18955;51.224;8.482;2023-09-19T15:33:31;14.18;;;2.03;;
32505;SDS011;18955;51.224;8.482;2023-09-19T15:38:29;12.18;;;1.75;;
32505;SDS011;18955;51.224;8.482;2023-09-19T15:41:00;11.88;;;2.10;;
32505;SDS011;18955;51.224;8.482;2023-09-19T15:43:26;11.40;;;2.17;;
32505;SDS011;18955;51.224;8.482;2023-09-19T15:45:52;14.73;;;1.90;;
32505;SDS011;18955;51.224;8.482;2023-09-19T15:48:19;8.57;;;1.95;;
32505;SDS011;18955;51.224;8.482;2023-09-19T15:50:47;10.65;;;2.25;;
32505;SDS011;18955;51.224;8.482;2023-09-19T15:53:13;10.52;;;1.83;;
32505;SDS011;18955;51.224;8.482;2023-09-19T15:55:39;12.32;;;1.90;;
32505;SDS011;18955;51.224;8.482;2023-09-19T15:58:06;15.65;;;2.17;;
32505;SDS011;18955;51.224;8.482;2023-09-19T16:00:32;13.27;;;2.03;;
32505;SDS011;18955;51.224;8.482;2023-09-19T16:03:02;9.40;;;1.48;;
32505;SDS011;18955;51.224;8.482;2023-09-19T16:05:37;10.30;;;1.77;;
32505;SDS011;18955;51.224;8.482;2023-09-19T16:08:05;8.18;;;1.85;;
32505;SDS011;18955;51.224;8.482;2023-09-19T16:10:36;7.15;;;1.77;;
32505;SDS011;18955;51.224;8.482;2023-09-19T16:13:03;10.18;;;1.88;;
32505;SDS011;18955;51.224;8.482;2023-09-19T16:15:30;9.73;;;1.63;;
32505;SDS011;18955;51.224;8.482;2023-09-19T16:17:56;7.93;;;1.92;;
32505;SDS011;18955;51.224;8.482;2023-09-19T16:20:22;7.85;;;1.85;;
32505;SDS011;18955;51.224;8.482;2023-09-19T16:22:49;16.58;;;3.03;;
32505;SDS011;18955;51.224;8.482;2023-09-19T16:25:15;14.15;;;2.88;;
32505;SDS011;18955;51.224;8.482;2023-09-19T16:27:41;13.98;;;3.33;;
32505;SDS011;18955;51.224;8.482;2023-09-19T16:30:08;15.70;;;2.20;;
32505;SDS011;18955;51.224;8.482;2023-09-19T16:32:37;7.85;;;2.15;;
32505;SDS011;18955;51.224;8.482;2023-09-19T16:35:04;18.80;;;2.90;;
32505;SDS011;18955;51.224;8.482;2023-09-19T16:37:30;14.13;;;2.83;;
32505;SDS011;18955;51.224;8.482;2023-09-19T16:39:56;12.13;;;1.92;;
32505;SDS011;18955;51.224;8.482;2023-09-19T16:42:23;10.77;;;1.92;;
32505;SDS011;18955;51.224;8.482;2023-09-19T16:47:16;10.48;;;1.98;;
32505;SDS011;18955;51.224;8.482;2023-09-19T16:49:42;9.60;;;1.77;;
32505;SDS011;18955;51.224;8.482;2023-09-19T16:52:08;8.80;;;1.95;;
32505;SDS011;18955;51.224;8.482;2023-09-19T16:54:35;12.90;;;2.03;;
32505;SDS011;18955;51.224;8.482;2023-09-19T16:57:01;10.00;;;1.70;;
32505;SDS011;18955;51.224;8.482;2023-09-19T16:59:27;7.63;;;1.60;;
32505;SDS011;18955;51.224;8.482;2023-09-19T17:01:54;12.68;;;1.52;;
32505;SDS011;18955;51.224;8.482;2023-09-19T17:04:22;15.20;;;1.67;;
32505;SDS011;18955;51.224;8.482;2023-09-19T17:06:49;14.77;;;1.90;;
32505;SDS011;18955;51.224;8.482;2023-09-19T17:09:15;10.68;;;1.38;;
32505;SDS011;18955;51.224;8.482;2023-09-19T17:11:44;11.00;;;1.65;;
32505;SDS011;18955;51.224;8.482;2023-09-19T17:14:11;10.82;;;1.80;;
32505;SDS011;18955;51.224;8.482;2023-09-19T17:16:37;9.60;;;2.08;;
32505;SDS011;18955;51.224;8.482;2023-09-19T17:19:04;6.55;;;1.92;;
32505;SDS011;18955;51.224;8.482;2023-09-19T17:21:31;8.25;;;1.58;;
32505;SDS011;18955;51.224;8.482;2023-09-19T17:23:57;14.00;;;1.83;;
32505;SDS011;18955;51.224;8.482;2023-09-19T17:26:24;12.68;;;1.50;;
32505;SDS011;18955;51.224;8.482;2023-09-19T17:28:52;15.75;;;1.73;;
32505;SDS011;18955;51.224;8.482;2023-09-19T17:31:19;10.82;;;2.25;;
32505;SDS011;18955;51.224;8.482;2023-09-19T17:33:50;8.20;;;1.58;;
32505;SDS011;18955;51.224;8.482;2023-09-19T17:36:18;6.07;;;1.48;;
32505;SDS011;18955;51.224;8.482;2023-09-19T17:38:49;5.75;;;1.60;;
32505;SDS011;18955;51.224;8.482;2023-09-19T17:41:16;6.80;;;1.60;;
32505;SDS011;18955;51.224;8.482;2023-09-19T17:43:43;4.03;;;0.77;;
32505;SDS011;18955;51.224;8.482;2023-09-19T17:48:41;5.07;;;1.13;;
32505;SDS011;18955;51.224;8.482;2023-09-19T17:51:09;9.75;;;1.35;;
32505;SDS011;18955;51.224;8.482;2023-09-19T17:53:36;5.13;;;1.42;;
32505;SDS011;18955;51.224;8.482;2023-09-19T17:56:04;7.65;;;1.40;;
32505;SDS011;18955;51.224;8.482;2023-09-19T17:58:31;5.20;;;1.30;;
32505;SDS011;18955;51.224;8.482;2023-09-19T18:01:06;5.60;;;1.50;;
32505;SDS011;18955;51.224;8.482;2023-09-19T18:03:38;9.63;;;1.50;;
32505;SDS011;18955;51.224;8.482;2023-09-19T18:06:06;4.85;;;1.65;;
32505;SDS011;18955;51.224;8.482;2023-09-19T18:08:33;2.47;;;1.10;;
32505;SDS011;18955;51.224;8.482;2023-09-19T18:11:00;5.68;;;1.58;;
32505;SDS011;18955;51.224;8.482;2023-09-19T18:13:28;8.27;;;1.40;;
32505;SDS011;18955;51.224;8.482;2023-09-19T18:15:55;5.68;;;1.10;;
32505;SDS011;18955;51.224;8.482;2023-09-19T18:18:22;6.07;;;1.33;;
32505;SDS011;18955;51.224;8.482;2023-09-19T18:20:51;5.75;;;1.30;;
32505;SDS011;18955;51.224;8.482;2023-09-19T18:23:17;5.28;;;1.40;;
32505;SDS011;18955;51.224;8.482;2023-09-19T18:25:44;4.45;;;1.33;;
32505;SDS011;18955;51.224;8.482;2023-09-19T18:28:11;5.35;;;1.38;;
32505;SDS011;18955;51.224;8.482;2023-09-19T18:33:04;4.43;;;1.17;;
32505;SDS011;18955;51.224;8.482;2023-09-19T18:35:31;4.70;;;1.50;;
32505;SDS011;18955;51.224;8.482;2023-09-19T18:37:57;10.90;;;1.60;;
32505;SDS011;18955;51.224;8.482;2023-09-19T18:40:24;5.90;;;1.30;;
32505;SDS011;18955;51.224;8.482;2023-09-19T18:42:50;4.30;;;1.45;;
32505;SDS011;18955;51.224;8.482;2023-09-19T18:45:17;3.05;;;1.17;;
32505;SDS011;18955;51.224;8.482;2023-09-19T18:47:44;2.25;;;1.30;;
32505;SDS011;18955;51.224;8.482;2023-09-19T18:50:10;5.32;;;1.55;;
32505;SDS011;18955;51.224;8.482;2023-09-19T18:52:36;4.13;;;1.40;;
32505;SDS011;18955;51.224;8.482;2023-09-19T18:55:06;7.50;;;1.45;;
32505;SDS011;18955;51.224;8.482;2023-09-19T18:57:35;5.80;;;1.27;;
32505;SDS011;18955;51.224;8.482;2023-09-19T19:00:05;8.40;;;1.65;;
32505;SDS011;18955;51.224;8.482;2023-09-19T19:02:33;4.40;;;1.08;;
32505;SDS011;18955;51.224;8.482;2023-09-19T19:04:59;7.80;;;1.40;;
32505;SDS011;18955;51.224;8.482;2023-09-19T19:07:25;3.95;;;1.20;;
32505;SDS011;18955;51.224;8.482;2023-09-19T19:09:52;6.70;;;1.27;;
32505;SDS011;18955;51.224;8.482;2023-09-19T19:12:18;8.48;;;1.17;;
32505;SDS011;18955;51.224;8.482;2023-09-19T19:14:45;4.28;;;1.33;;
32505;SDS011;18955;51.224;8.482;2023-09-19T19:17:11;4.88;;;0.93;;
32505;SDS011;18955;51.224;8.482;2023-09-19T19:19:39;3.50;;;1.13;;
32505;SDS011;18955;51.224;8.482;2023-09-19T19:22:06;3.75;;;1.17;;
32505;SDS011;18955;51.224;8.482;2023-09-19T19:24:32;3.60;;;1.33;;
32505;SDS011;18955;51.224;8.482;2023-09-19T19:26:59;5.32;;;1.25;;
32505;SDS011;18955;51.224;8.482;2023-09-19T19:29:25;5.07;;;1.25;;
32505;SDS011;18955;51.224;8.482;2023-09-19T19:31:53;5.35;;;1.30;;
32505;SDS011;18955;51.224;8.482;2023-09-19T19:34:20;6.72;;;1.13;;
32505;SDS011;18955;51.224;8.482;2023-09-19T19:39:13;4.18;;;1.20;;
32505;SDS011;18955;51.224;8.482;2023-09-19T19:41:41;7.47;;;1.35;;
32505;SDS011;18955;51.224;8.482;2023-09-19T19:44:09;11.02;;;1.60;;
32505;SDS011;18955;51.224;8.482;2023-09-19T19:46:36;5.95;;;1.65;;
32505;SDS011;18955;51.224;8.482;2023-09-19T19:49:03;5.53;;;1.30;;
32505;SDS011;18955;51.224;8.482;2023-09-19T19:51:33;7.03;;;1.40;;
32505;SDS011;18955;51.224;8.482;2023-09-19T19:54:02;6.60;;;1.90;;
32505;SDS011;18955;51.224;8.482;2023-09-19T19:56:30;4.03;;;1.00;;
32505;SDS011;18955;51.224;8.482;2023-09-19T19:58:59;4.13;;;1.35;;
32505;SDS011;18955;51.224;8.482;2023-09-19T20:01:26;4.18;;;1.35;;
32505;SDS011;18955;51.224;8.482;2023-09-19T20:03:54;6.70;;;1.60;;
32505;SDS011;18955;51.224;8.482;2023-09-19T20:06:20;5.70;;;1.20;;
32505;SDS011;18955;51.224;8.482;2023-09-19T20:08:49;3.97;;;1.17;;
32505;SDS011;18955;51.224;8.482;2023-09-19T20:11:17;5.75;;;1.17;;
32505;SDS011;18955;51.224;8.482;2023-09-19T20:13:52;6.85;;;1.50;;
32505;SDS011;18955;51.224;8.482;2023-09-19T20:16:18;5.05;;;1.30;;
32505;SDS011;18955;51.224;8.482;2023-09-19T20:18:44;4.00;;;1.27;;
32505;SDS011;18955;51.224;8.482;2023-09-19T20:21:11;5.60;;;1.30;;
32505;SDS011;18955;51.224;8.482;2023-09-19T20:23:41;7.75;;;2.03;;
32505;SDS011;18955;51.224;8.482;2023-09-19T20:26:12;4.90;;;1.67;;
32505;SDS011;18955;51.224;8.482;2023-09-19T20:28:39;7.82;;;1.42;;
32505;SDS011;18955;51.224;8.482;2023-09-19T20:31:09;2.95;;;1.02;;
32505;SDS011;18955;51.224;8.482;2023-09-19T20:33:37;3.83;;;1.08;;
32505;SDS011;18955;51.224;8.482;2023-09-19T20:36:04;5.00;;;1.20;;
32505;SDS011;18955;51.224;8.482;2023-09-19T20:38:36;5.70;;;2.08;;
32505;SDS011;18955;51.224;8.482;2023-09-19T20:41:09;3.35;;;1.30;;
32505;SDS011;18955;51.224;8.482;2023-09-19T20:43:35;5.53;;;1.20;;
32505;SDS011;18955;51.224;8.482;2023-09-19T20:46:06;5.05;;;1.33;;
32505;SDS011;18955;51.224;8.482;2023-09-19T20:53:36;6.45;;;1.50;;
32505;SDS011;18955;51.224;8.482;2023-09-19T20:56:03;6.18;;;1.60;;
32505;SDS011;18955;51.224;8.482;2023-09-19T20:58:36;6.05;;;1.35;;
32505;SDS011;18955;51.224;8.482;2023-09-19T21:01:04;5.45;;;1.33;;
32505;SDS011;18955;51.224;8.482;2023-09-19T21:03:31;5.82;;;1.92;;
32505;SDS011;18955;51.224;8.482;2023-09-19T21:08:36;4.20;;;1.45;;
32505;SDS011;18955;51.224;8.482;2023-09-19T21:11:36;7.57;;;1.40;;
32505;SDS011;18955;51.224;8.482;2023-09-19T21:13:55;5.53;;;1.75;;
32505;SDS011;18955;51.224;8.482;2023-09-19T21:16:22;2.90;;;1.20;;
32505;SDS011;18955;51.224;8.482;2023-09-19T21:18:48;8.32;;;1.08;;
32505;SDS011;18955;51.224;8.482;2023-09-19T21:21:15;4.22;;;1.40;;
32505;SDS011;18955;51.224;8.482;2023-09-19T21:23:42;3.83;;;1.50;;
32505;SDS011;18955;51.224;8.482;2023-09-19T21:26:09;4.80;;;1.17;;
32505;SDS011;18955;51.224;8.482;2023-09-19T21:28:36;4.03;;;1.50;;
32505;SDS011;18955;51.224;8.482;2023-09-19T21:31:03;6.20;;;1.40;;
32505;SDS011;18955;51.224;8.482;2023-09-19T21:33:40;8.98;;;1.60;;
32505;SDS011;18955;51.224;8.482;2023-09-19T21:36:11;6.53;;;1.67;;
32505;SDS011;18955;51.224;8.482;2023-09-19T21:38:45;5.53;;;1.52;;
32505;SDS011;18955;51.224;8.482;2023-09-19T21:41:14;6.18;;;1.40;;
32505;SDS011;18955;51.224;8.482;2023-09-19T21:43:42;3.83;;;1.50;;
32505;SDS011;18955;51.224;8.482;2023-09-19T21:46:09;4.60;;;1.42;;
32505;SDS011;18955;51.224;8.482;2023-09-19T21:48:36;5.00;;;1.80;;
32505;SDS011;18955;51.224;8.482;2023-09-19T21:51:02;8.13;;;1.75;;
32505;SDS011;18955;51.224;8.482;2023-09-19T21:53:31;2.13;;;1.52;;
32505;SDS011;18955;51.224;8.482;2023-09-19T21:56:00;6.70;;;2.13;;
32505;SDS011;18955;51.224;8.482;2023-09-19T21:58:27;7.78;;;1.58;;
32505;SDS011;18955;51.224;8.482;2023-09-19T22:00:57;3.72;;;1.33;;
32505;SDS011;18955;51.224;8.482;2023-09-19T22:03:23;5.35;;;1.73;;
32505;SDS011;18955;51.224;8.482;2023-09-19T22:05:50;3.58;;;1.60;;
32505;SDS011;18955;51.224;8.482;2023-09-19T22:08:17;3.95;;;1.33;;
32505;SDS011;18955;51.224;8.482;2023-09-19T22:10:44;9.32;;;2.40;;
32505;SDS011;18955;51.224;8.482;2023-09-19T22:13:12;5.53;;;1.88;;
32505;SDS011;18955;51.224;8.482;2023-09-19T22:15:46;5.53;;;1.80;;
32505;SDS011;18955;51.224;8.482;2023-09-19T22:18:16;4.57;;;1.92;;
32505;SDS011;18955;51.224;8.482;2023-09-19T22:20:46;6.88;;;1.60;;
32505;SDS011;18955;51.224;8.482;2023-09-19T22:23:15;6.22;;;1.70;;
32505;SDS011;18955;51.224;8.482;2023-09-19T22:25:54;7.45;;;2.00;;
32505;SDS011;18955;51.224;8.482;2023-09-19T22:28:20;7.85;;;2.05;;
32505;SDS011;18955;51.224;8.482;2023-09-19T22:30:46;4.97;;;1.45;;
32505;SDS011;18955;51.224;8.482;2023-09-19T22:33:16;5.63;;;1.50;;
32505;SDS011;18955;51.224;8.482;2023-09-19T22:35:43;7.43;;;2.03;;
32505;SDS011;18955;51.224;8.482;2023-09-19T22:38:20;5.40;;;2.00;;
32505;SDS011;18955;51.224;8.482;2023-09-19T22:40:47;6.28;;;1.83;;
32505;SDS011;18955;51.224;8.482;2023-09-19T22:43:20;13.48;;;2.00;;
32505;SDS011;18955;51.224;8.482;2023-09-19T22:45:52;9.73;;;2.35;;
32505;SDS011;18955;51.224;8.482;2023-09-19T22:48:21;4.80;;;1.70;;
32505;SDS011;18955;51.224;8.482;2023-09-19T22:50:51;10.20;;;1.77;;
32505;SDS011;18955;51.224;8.482;2023-09-19T22:53:23;3.65;;;1.80;;
32505;SDS011;18955;51.224;8.482;2023-09-19T22:55:52;6.97;;;1.73;;
32505;SDS011;18955;51.224;8.482;2023-09-19T22:58:20;5.35;;;1.65;;
32505;SDS011;18955;51.224;8.482;2023-09-19T23:00:46;6.50;;;1.05;;
32505;SDS011;18955;51.224;8.482;2023-09-19T23:03:12;10.50;;;1.60;;
32505;SDS011;18955;51.224;8.482;2023-09-19T23:05:42;5.97;;;1.90;;
32505;SDS011;18955;51.224;8.482;2023-09-19T23:08:10;6.68;;;1.70;;
32505;SDS011;18955;51.224;8.482;2023-09-19T23:13:11;5.07;;;1.52;;
32505;SDS011;18955;51.224;8.482;2023-09-19T23:15:42;5.95;;;1.77;;
32505;SDS011;18955;51.224;8.482;2023-09-19T23:18:10;8.60;;;2.47;;
32505;SDS011;18955;51.224;8.482;2023-09-19T23:20:37;8.82;;;1.90;;
32505;SDS011;18955;51.224;8.482;2023-09-19T23:23:07;7.97;;;1.73;;
32505;SDS011;18955;51.224;8.482;2023-09-19T23:25:35;8.00;;;2.05;;
32505;SDS011;18955;51.224;8.482;2023-09-19T23:28:02;5.53;;;1.40;;
32505;SDS011;18955;51.224;8.482;2023-09-19T23:30:29;9.10;;;2.30;;
32505;SDS011;18955;51.224;8.482;2023-09-19T23:32:58;10.00;;;2.00;;
32505;SDS011;18955;51.224;8.482;2023-09-19T23:37:53;6.25;;;1.75;;
32505;SDS011;18955;51.224;8.482;2023-09-19T23:40:21;6.63;;;2.15;;
32505;SDS011;18955;51.224;8.482;2023-09-19T23:42:48;11.40;;;2.08;;
32505;SDS011;18955;51.224;8.482;2023-09-19T23:45:15;5.13;;;1.40;;
32505;SDS011;18955;51.224;8.482;2023-09-19T23:47:46;5.68;;;1.98;;
32505;SDS011;18955;51.224;8.482;2023-09-19T23:50:14;5.55;;;1.80;;
32505;SDS011;18955;51.224;8.482;2023-09-19T23:52:41;3.92;;;1.30;;
32505;SDS011;18955;51.224;8.482;2023-09-19T23:55:07;4.13;;;1.77;;
32505;SDS011;18955;51.224;8.482;2023-09-19T23:57:35;8.27;;;1.98;;
